Time;durP1;ratioP1;P1;durP2;ratioP2;P2;SDS_P1;SDS_P2;PMS_P1;PMS_P2;Temp;Humidity;BMP_temperature;BMP_pressure;BME280_temperature;BME280_humidity;BME280_pressure;Samples;Min_cycle;Max_cycle;Signal;HPM_P1;HPM_P2
2023/10/09 00:01:42;;;;;;;0.73;0.60;;;11.60;99.90;;;;;;4408837;32;20442;-72
2023/10/09 00:04:10;;;;;;;0.50;0.50;;;11.40;99.90;;;;;;4417336;32;20065;-73
2023/10/09 00:06:37;;;;;;;0.73;0.73;;;11.40;99.90;;;;;;4415278;32;20470;-72
2023/10/09 00:09:46;;;;;;;0.30;0.30;;;11.40;99.90;;;;;;4411668;32;20596;-73
2023/10/09 00:11:57;;;;;;;0.65;0.62;;;11.30;99.90;;;;;;4400210;32;20604;-72
2023/10/09 00:14:25;;;;;;;0.30;0.30;;;11.30;99.90;;;;;;4415520;32;20065;-74
2023/10/09 00:17:17;;;;;;;0.68;0.60;;;11.30;99.90;;;;;;4420322;32;20135;-74
2023/10/09 00:19:37;;;;;;;0.55;0.40;;;11.20;99.90;;;;;;4407044;32;20953;-72
2023/10/09 00:22:19;;;;;;;0.65;0.55;;;11.10;99.90;;;;;;4421539;32;20140;-72
2023/10/09 00:24:45;;;;;;;3.62;0.82;;;11.10;99.90;;;;;;4414553;32;20532;-73
2023/10/09 00:27:12;;;;;;;0.40;0.40;;;11.00;99.90;;;;;;4415001;32;20396;-73
2023/10/09 00:29:44;;;;;;;0.25;0.25;;;10.90;99.90;;;;;;4414342;32;20152;-74
2023/10/09 00:32:15;;;;;;;0.30;0.30;;;10.90;99.90;;;;;;4409862;32;20077;-76
2023/10/09 00:34:41;;;;;;;1.40;0.60;;;10.90;99.90;;;;;;4413508;32;20074;-75
2023/10/09 00:37:16;;;;;;;0.62;0.62;;;10.80;99.90;;;;;;4419077;32;20093;-73
2023/10/09 00:39:43;;;;;;;5.47;0.52;;;10.80;99.90;;;;;;4417943;32;20066;-73
2023/10/09 00:42:14;;;;;;;0.40;0.40;;;10.70;99.90;;;;;;4414782;32;20117;-74
2023/10/09 00:44:41;;;;;;;2.85;0.60;;;10.80;99.90;;;;;;4416265;32;20122;-73
2023/10/09 00:47:33;;;;;;;0.43;0.43;;;10.80;99.90;;;;;;4413658;32;20090;-73
2023/10/09 00:49:59;;;;;;;0.45;0.45;;;10.90;99.90;;;;;;4414942;32;20099;-74
2023/10/09 00:52:32;;;;;;;0.47;0.47;;;10.80;99.90;;;;;;4422070;32;20061;-75
2023/10/09 00:55:04;;;;;;;1.45;1.23;;;10.80;99.90;;;;;;4418993;32;20116;-75
2023/10/09 00:57:33;;;;;;;0.30;0.30;;;10.70;99.90;;;;;;4412512;32;20077;-74
2023/10/09 01:00:00;;;;;;;0.62;0.62;;;10.70;99.90;;;;;;4413432;32;20493;-74
2023/10/09 01:02:35;;;;;;;0.20;0.20;;;10.70;99.90;;;;;;4409947;32;20419;-74
2023/10/09 01:05:11;;;;;;;0.30;0.30;;;10.70;99.90;;;;;;4410310;32;20089;-74
2023/10/09 01:07:40;;;;;;;0.40;0.40;;;10.70;99.90;;;;;;4414051;32;20092;-74
2023/10/09 01:10:09;;;;;;;0.50;0.50;;;10.70;99.90;;;;;;4413964;32;20085;-75
2023/10/09 01:12:42;;;;;;;0.30;0.30;;;10.70;99.90;;;;;;4410542;32;20164;-74
2023/10/09 01:15:07;;;;;;;0.57;0.57;;;10.60;99.90;;;;;;4413670;32;20085;-75
2023/10/09 01:17:36;;;;;;;0.30;0.30;;;10.60;99.90;;;;;;4415997;32;20085;-74
2023/10/09 01:20:04;;;;;;;0.55;0.55;;;10.60;99.90;;;;;;4419864;32;20094;-74
2023/10/09 01:22:30;;;;;;;0.30;0.30;;;10.50;99.90;;;;;;4419706;32;20077;-74
2023/10/09 01:24:56;;;;;;;0.30;0.30;;;10.50;99.90;;;;;;4418971;32;20073;-74
2023/10/09 01:27:25;;;;;;;0.28;0.28;;;10.50;99.90;;;;;;4413381;32;20092;-75
2023/10/09 01:29:51;;;;;;;0.30;0.30;;;10.50;99.90;;;;;;4415876;32;20081;-74
2023/10/09 01:32:18;;;;;;;0.52;0.50;;;10.60;99.90;;;;;;4413815;32;20097;-75
2023/10/09 01:34:48;;;;;;;0.30;0.30;;;10.70;99.90;;;;;;4413945;32;21284;-76
2023/10/09 01:37:18;;;;;;;0.25;0.25;;;10.70;99.90;;;;;;4413332;32;20458;-75
2023/10/09 01:39:48;;;;;;;0.30;0.30;;;10.70;99.90;;;;;;4411802;32;20078;-76
2023/10/09 01:42:23;;;;;;;0.35;0.35;;;10.70;99.90;;;;;;4410806;32;20514;-76
2023/10/09 01:44:49;;;;;;;0.40;0.40;;;10.70;99.90;;;;;;4413213;32;20101;-76
2023/10/09 01:47:18;;;;;;;0.50;0.50;;;10.60;99.90;;;;;;4414941;32;20093;-75
2023/10/09 01:49:43;;;;;;;1.85;0.40;;;10.60;99.90;;;;;;4412112;32;20923;-75
2023/10/09 01:52:15;;;;;;;0.30;0.30;;;10.50;99.90;;;;;;4412955;32;20077;-75
2023/10/09 01:54:42;;;;;;;0.60;0.50;;;10.60;99.90;;;;;;4415354;32;20148;-75
2023/10/09 01:57:11;;;;;;;0.30;0.30;;;10.50;99.90;;;;;;4415432;32;20528;-75
2023/10/09 01:59:38;;;;;;;0.30;0.30;;;10.60;99.90;;;;;;4418225;32;20532;-75
2023/10/09 02:02:24;;;;;;;0.20;0.20;;;10.60;99.90;;;;;;4417780;32;20069;-75
2023/10/09 02:04:51;;;;;;;0.37;0.37;;;10.60;99.90;;;;;;4414370;32;20069;-75
2023/10/09 02:07:22;;;;;;;0.40;0.40;;;10.70;99.90;;;;;;4417685;32;20113;-75
2023/10/09 02:09:48;;;;;;;0.30;0.28;;;10.60;99.90;;;;;;4415946;32;20106;-75
2023/10/09 02:12:13;;;;;;;1.35;0.50;;;10.50;99.90;;;;;;4413971;32;20073;-75
2023/10/09 02:14:41;;;;;;;0.50;0.50;;;10.50;99.90;;;;;;4417456;32;20062;-76
2023/10/09 02:17:17;;;;;;;0.30;0.30;;;10.60;99.90;;;;;;4413369;32;20578;-76
2023/10/09 02:19:48;;;;;;;0.22;0.22;;;10.60;99.90;;;;;;4413911;32;20899;-76
2023/10/09 02:22:13;;;;;;;1.12;0.55;;;10.70;99.90;;;;;;4416601;32;20114;-76
2023/10/09 02:25:12;;;;;;;0.45;0.45;;;10.70;99.90;;;;;;4414523;32;20062;-76
2023/10/09 02:27:59;;;;;;;0.40;0.40;;;10.70;99.90;;;;;;4396707;32;20581;-76
2023/10/09 02:30:15;;;;;;;0.30;0.30;;;10.60;99.90;;;;;;4401489;32;20138;-76
2023/10/09 02:32:42;;;;;;;0.80;0.75;;;10.50;99.90;;;;;;4413472;32;20137;-76
2023/10/09 02:35:18;;;;;;;0.30;0.30;;;10.50;99.90;;;;;;4411981;32;20085;-76
2023/10/09 02:37:46;;;;;;;1.17;1.08;;;10.50;99.90;;;;;;4412888;32;20069;-76
2023/10/09 02:40:22;;;;;;;1.45;0.95;;;10.60;99.90;;;;;;4411485;32;20130;-76
2023/10/09 02:42:49;;;;;;;0.30;0.30;;;10.70;99.90;;;;;;4413985;32;20104;-76
2023/10/09 02:45:16;;;;;;;0.30;0.30;;;10.70;99.90;;;;;;4417308;32;20548;-76
2023/10/09 02:47:42;;;;;;;0.32;0.32;;;10.70;99.90;;;;;;4413394;32;20569;-75
2023/10/09 02:50:19;;;;;;;0.57;0.57;;;10.80;99.90;;;;;;4412835;32;20066;-76
2023/10/09 02:52:47;;;;;;;7.70;2.28;;;10.70;99.90;;;;;;4414417;32;20093;-75
2023/10/09 02:55:23;;;;;;;1.00;0.93;;;10.60;99.90;;;;;;4414333;32;20458;-76
2023/10/09 02:57:52;;;;;;;0.30;0.30;;;10.50;99.90;;;;;;4413734;32;20081;-76
2023/10/09 03:00:19;;;;;;;0.40;0.40;;;10.50;99.90;;;;;;4414074;32;20140;-75
2023/10/09 03:02:49;;;;;;;4.25;0.77;;;10.50;99.90;;;;;;4412981;32;20086;-75
2023/10/09 03:05:15;;;;;;;0.60;0.60;;;10.50;99.90;;;;;;4417263;32;20557;-75
2023/10/09 03:07:42;;;;;;;0.37;0.37;;;10.50;99.90;;;;;;4414599;32;20078;-75
2023/10/09 03:10:09;;;;;;;3.65;0.40;;;10.60;99.90;;;;;;4415694;32;20147;-77
2023/10/09 03:12:39;;;;;;;0.75;0.50;;;10.70;99.90;;;;;;4415770;32;20090;-76
2023/10/09 03:15:08;;;;;;;0.30;0.30;;;10.70;99.90;;;;;;4415551;32;20082;-76
2023/10/09 03:17:34;;;;;;;0.20;0.20;;;10.70;99.90;;;;;;4418370;32;20121;-77
2023/10/09 03:20:12;;;;;;;0.30;0.30;;;10.70;99.90;;;;;;4415242;32;20098;-77
2023/10/09 03:22:39;;;;;;;0.30;0.30;;;10.80;99.90;;;;;;4419670;32;20114;-77
2023/10/09 03:25:11;;;;;;;0.50;0.50;;;10.80;99.90;;;;;;4419320;32;20058;-77
2023/10/09 03:27:45;;;;;;;0.40;0.40;;;10.90;99.90;;;;;;4418634;32;20109;-78
2023/10/09 03:30:16;;;;;;;0.70;0.70;;;10.90;99.90;;;;;;4422975;32;20153;-76
2023/10/09 03:32:43;;;;;;;0.50;0.50;;;10.90;99.90;;;;;;4423053;32;20101;-77
2023/10/09 03:35:14;;;;;;;0.30;0.30;;;10.80;99.90;;;;;;4422179;32;20089;-77
2023/10/09 03:37:41;;;;;;;0.45;0.45;;;10.80;99.90;;;;;;4423638;32;20086;-77
2023/10/09 03:40:08;;;;;;;0.40;0.40;;;10.80;99.90;;;;;;4422314;32;20073;-78
2023/10/09 03:42:36;;;;;;;0.37;0.37;;;10.70;99.90;;;;;;4419502;32;20644;-78
2023/10/09 03:45:12;;;;;;;0.30;0.30;;;10.70;99.90;;;;;;4421304;32;20070;-76
2023/10/09 03:47:37;;;;;;;2.62;0.95;;;10.70;99.90;;;;;;4425807;32;20525;-78
2023/10/09 03:50:20;;;;;;;0.50;0.50;;;10.60;99.90;;;;;;4420627;32;20081;-77
2023/10/09 03:52:46;;;;;;;0.52;0.45;;;10.60;99.90;;;;;;4406303;32;20090;-77
2023/10/09 03:55:13;;;;;;;0.40;0.40;;;10.60;99.90;;;;;;4419085;32;20591;-78
2023/10/09 03:57:40;;;;;;;0.82;0.73;;;10.60;99.90;;;;;;4422217;32;20089;-77
2023/10/09 04:02:37;;;;;;;1.98;0.60;;;10.60;99.90;;;;;;4421658;32;20069;-75
2023/10/09 04:05:05;;;;;;;2.67;1.30;;;10.60;99.90;;;;;;4419882;32;20123;-75
2023/10/09 04:07:33;;;;;;;0.30;0.30;;;10.60;99.90;;;;;;4420546;32;20089;-75
2023/10/09 04:10:32;;;;;;;0.50;0.50;;;10.60;99.90;;;;;;4417800;32;20627;-78
2023/10/09 04:12:44;;;;;;;0.37;0.37;;;10.60;99.90;;;;;;4405365;32;20161;-79
2023/10/09 04:15:15;;;;;;;0.50;0.50;;;10.60;99.90;;;;;;4416404;32;20136;-76
2023/10/09 04:17:42;;;;;;;0.40;0.40;;;10.60;99.90;;;;;;4415753;32;20122;-76
2023/10/09 04:23:33;;;;;;;0.68;0.68;;;10.70;99.90;;;;;;4414877;32;20561;-76
2023/10/09 04:25:41;;;;;;;0.70;0.70;;;10.70;99.90;;;;;;4405275;32;20093;-76
2023/10/09 04:28:09;;;;;;;0.43;0.43;;;10.80;99.90;;;;;;4421165;32;20140;-75
2023/10/09 04:30:40;;;;;;;0.40;0.40;;;10.80;99.90;;;;;;4417551;32;20110;-76
2023/10/09 04:33:11;;;;;;;0.60;0.60;;;10.80;99.90;;;;;;4418002;32;20647;-75
2023/10/09 04:35:38;;;;;;;0.52;0.50;;;10.80;99.90;;;;;;4419207;32;20090;-75
2023/10/09 04:38:05;;;;;;;0.43;0.43;;;10.90;99.90;;;;;;4420044;32;20074;-76
2023/10/09 04:41:05;;;;;;;0.57;0.57;;;10.90;99.90;;;;;;4416878;32;20093;-76
2023/10/09 04:43:20;;;;;;;0.30;0.30;;;10.80;99.90;;;;;;4414481;32;20097;-76
2023/10/09 04:46:07;;;;;;;2.53;0.80;;;10.70;99.90;;;;;;4422362;32;20089;-75
2023/10/09 04:48:37;;;;;;;0.20;0.20;;;10.70;99.90;;;;;;4420156;32;20100;-76
2023/10/09 04:51:20;;;;;;;0.60;0.47;;;10.70;99.90;;;;;;4422489;32;20141;-76
2023/10/09 04:54:12;;;;;;;0.40;0.40;;;10.70;99.90;;;;;;4423610;32;20534;-77
2023/10/09 04:56:51;;;;;;;5.47;0.68;;;10.70;99.90;;;;;;4406619;32;20093;-76
2023/10/09 04:59:18;;;;;;;0.28;0.28;;;10.70;99.90;;;;;;4420627;32;20192;-77
2023/10/09 05:04:26;;;;;;;0.40;0.40;;;10.60;99.90;;;;;;4396382;32;20417;-77
2023/10/09 05:06:55;;;;;;;3.83;1.10;;;10.70;99.90;;;;;;4422796;32;20096;-75
2023/10/09 05:09:22;;;;;;;1.00;0.45;;;10.60;99.90;;;;;;4418464;32;20097;-77
2023/10/09 05:14:26;;;;;;;;;;;10.60;99.90;;;;;;4396492;32;20074;-77
2023/10/09 05:16:54;;;;;;;0.30;0.30;;;10.70;99.90;;;;;;4408062;32;20233;-77
2023/10/09 05:22:29;;;;;;;0.30;0.30;;;10.70;99.90;;;;;;4401917;32;20085;-78
2023/10/09 05:24:59;;;;;;;2.28;1.02;;;10.60;99.90;;;;;;4408478;32;20082;-77
2023/10/09 05:28:24;;;;;;;0.50;0.50;;;10.50;99.90;;;;;;4400827;32;20529;-78
2023/10/09 05:30:24;;;;;;;0.30;0.30;;;10.50;99.90;;;;;;4377178;32;20131;-77
2023/10/09 05:32:55;;;;;;;0.50;0.50;;;10.60;99.90;;;;;;4399486;32;20577;-76
2023/10/09 05:35:29;;;;;;;0.50;0.50;;;10.60;99.90;;;;;;4402779;32;20097;-75
2023/10/09 05:38:15;;;;;;;0.30;0.30;;;10.60;99.90;;;;;;4402469;32;20134;-74
2023/10/09 05:40:43;;;;;;;0.98;0.60;;;10.60;99.90;;;;;;4403897;32;20106;-75
2023/10/09 05:44:55;;;;;;;0.60;0.60;;;10.60;99.90;;;;;;4388060;32;20105;-75
2023/10/09 05:49:19;;;;;;;0.20;0.20;;;10.70;99.90;;;;;;4396661;32;20077;-75
2023/10/09 05:51:41;;;;;;;0.65;0.65;;;10.60;99.90;;;;;;4378118;32;20156;-76
2023/10/09 06:03:16;;;;;;;0.73;0.50;;;10.60;99.90;;;;;;4372616;32;20090;-74
2023/10/09 06:05:19;;;;;;;0.40;0.40;;;10.60;99.90;;;;;;4376620;32;20151;-72
2023/10/09 06:08:04;;;;;;;0.40;0.40;;;10.50;99.90;;;;;;4394437;32;20710;-75
2023/10/09 06:10:39;;;;;;;0.30;0.30;;;10.60;99.90;;;;;;4388103;32;20160;-74
2023/10/09 06:13:06;;;;;;;1.20;0.70;;;10.60;99.90;;;;;;4386857;32;20089;-75
2023/10/09 06:16:09;;;;;;;0.68;0.60;;;10.60;99.90;;;;;;4384007;32;20547;-75
2023/10/09 06:18:41;;;;;;;15.05;0.65;;;10.60;99.90;;;;;;4371483;32;20093;-75
2023/10/09 06:21:33;;;;;;;0.37;0.37;;;10.60;99.90;;;;;;4393145;32;20092;-75
2023/10/09 06:24:33;;;;;;;4.75;0.50;;;10.60;99.90;;;;;;4378590;32;20089;-75
2023/10/09 06:26:38;;;;;;;1.50;0.73;;;10.60;99.90;;;;;;4381152;32;20128;-73
2023/10/09 06:29:34;;;;;;;2.90;0.52;;;10.50;99.90;;;;;;4388940;32;20096;-76
2023/10/09 06:32:50;;;;;;;0.30;0.30;;;10.60;99.90;;;;;;4377791;32;20552;-75
2023/10/09 06:34:35;;;;;;;13.25;0.55;;;10.60;99.90;;;;;;4377915;32;20161;-73
2023/10/09 06:37:06;;;;;;;0.50;0.50;;;10.60;99.90;;;;;;4395474;32;20555;-74
2023/10/09 06:39:50;;;;;;;0.50;0.50;;;10.70;99.90;;;;;;4382294;32;20100;-75
2023/10/09 06:42:51;;;;;;;0.40;0.40;;;10.80;99.90;;;;;;4381383;32;20799;-74
2023/10/09 06:45:20;;;;;;;1.45;0.65;;;10.80;99.90;;;;;;4377008;32;20096;-74
2023/10/09 06:47:55;;;;;;;1.40;0.60;;;10.70;99.90;;;;;;4391431;32;20769;-75
2023/10/09 06:53:25;;;;;;;0.30;0.30;;;10.70;99.90;;;;;;4404565;32;20837;-72
2023/10/09 06:55:48;;;;;;;0.40;0.40;;;10.70;99.90;;;;;;4386082;32;20053;-75
2023/10/09 06:58:22;;;;;;;1.65;1.30;;;10.70;99.90;;;;;;4387421;32;20125;-73
2023/10/09 07:01:28;;;;;;;2.17;0.77;;;10.80;99.90;;;;;;4384848;32;20120;-76
2023/10/09 07:03:34;;;;;;;0.30;0.30;;;10.80;99.90;;;;;;4377319;32;20580;-72
2023/10/09 07:06:09;;;;;;;0.47;0.43;;;10.70;99.90;;;;;;4394610;32;20190;-75
2023/10/09 07:08:37;;;;;;;2.58;0.90;;;10.70;99.90;;;;;;4382863;32;20097;-74
2023/10/09 07:13:58;;;;;;;0.50;0.50;;;10.70;99.90;;;;;;4391488;32;20855;-75
2023/10/09 07:16:28;;;;;;;0.40;0.40;;;10.70;99.90;;;;;;4387830;32;20144;-75
2023/10/09 07:19:09;;;;;;;0.40;0.40;;;10.70;99.90;;;;;;4395514;32;21681;-73
2023/10/09 07:21:35;;;;;;;;;;;10.70;99.90;;;;;;4396670;32;20241;-74
2023/10/09 07:24:14;;;;;;;0.30;0.30;;;10.80;99.90;;;;;;4392305;32;20038;-74
2023/10/09 07:26:47;;;;;;;3.20;0.70;;;10.80;99.90;;;;;;4375960;32;20104;-73
2023/10/09 07:29:16;;;;;;;0.95;0.65;;;10.70;99.90;;;;;;4387045;32;20121;-73
2023/10/09 07:31:45;;;;;;;3.25;1.20;;;10.80;99.90;;;;;;4381476;32;20147;-74
2023/10/09 07:35:11;;;;;;;0.98;0.40;;;10.80;99.90;;;;;;4401344;32;20143;-76
2023/10/09 07:36:56;;;;;;;0.40;0.40;;;10.90;99.90;;;;;;4376704;32;21206;-76
2023/10/09 07:39:22;;;;;;;0.55;0.55;;;10.90;99.90;;;;;;4388670;32;20519;-76
2023/10/09 07:41:56;;;;;;;0.20;0.20;;;10.90;99.90;;;;;;4395867;32;20288;-74
2023/10/09 07:44:37;;;;;;;0.40;0.40;;;10.90;99.90;;;;;;4394014;32;20518;-76
2023/10/09 07:48:00;;;;;;;1.35;0.60;;;11.00;99.90;;;;;;4395837;32;20128;-76
2023/10/09 07:49:53;;;;;;;0.25;0.25;;;11.10;99.90;;;;;;4372436;32;20197;-75
2023/10/09 07:52:21;;;;;;;0.20;0.20;;;11.10;99.90;;;;;;4396928;32;20109;-74
2023/10/09 07:54:52;;;;;;;0.43;0.43;;;11.10;99.90;;;;;;4406851;32;20113;-74
2023/10/09 07:57:25;;;;;;;0.37;0.37;;;11.10;99.90;;;;;;4386599;32;20202;-75
2023/10/09 07:59:54;;;;;;;0.60;0.60;;;11.10;99.90;;;;;;4393260;32;20114;-74
2023/10/09 08:02:31;;;;;;;3.42;0.68;;;11.20;99.90;;;;;;4394556;32;20136;-75
2023/10/09 08:05:03;;;;;;;0.37;0.37;;;11.20;99.90;;;;;;4395535;32;20108;-76
2023/10/09 08:07:37;;;;;;;0.80;0.40;;;11.20;99.90;;;;;;4398832;32;20058;-73
2023/10/09 08:15:21;;;;;;;0.37;0.30;;;11.30;99.90;;;;;;4402804;32;20404;-73
2023/10/09 08:17:53;;;;;;;2.62;0.68;;;11.40;99.90;;;;;;4398206;32;20549;-74
2023/10/09 08:20:26;;;;;;;0.30;0.30;;;11.40;99.90;;;;;;4389887;32;20117;-76
2023/10/09 08:22:57;;;;;;;0.47;0.47;;;11.30;99.90;;;;;;4391360;32;20094;-76
2023/10/09 08:25:26;;;;;;;0.35;0.35;;;11.30;99.90;;;;;;4398350;32;20864;-74
2023/10/09 08:27:55;;;;;;;0.50;0.50;;;11.30;99.90;;;;;;4391833;32;20584;-75
2023/10/09 08:33:40;;;;;;;0.90;0.75;;;11.30;99.90;;;;;;4394614;32;20089;-76
2023/10/09 08:35:47;;;;;;;0.50;0.50;;;11.20;99.90;;;;;;4377907;32;21884;-76
2023/10/09 08:38:23;;;;;;;0.30;0.30;;;11.30;99.90;;;;;;4391692;32;20088;-75
2023/10/09 08:40:50;;;;;;;0.30;0.30;;;11.30;99.90;;;;;;4397882;32;20337;-74
2023/10/09 08:43:18;;;;;;;1.10;0.65;;;11.20;99.90;;;;;;4389693;32;20090;-73
2023/10/09 08:46:00;;;;;;;1.00;0.70;;;11.20;99.90;;;;;;4394727;32;20085;-75
2023/10/09 08:48:27;;;;;;;2.67;1.02;;;11.20;99.90;;;;;;4402640;32;20080;-75
2023/10/09 08:50:54;;;;;;;0.30;0.30;;;11.20;99.90;;;;;;4396012;32;20781;-76
2023/10/09 08:53:21;;;;;;;0.32;0.32;;;11.20;99.90;;;;;;4401298;32;20069;-75
2023/10/09 08:55:47;;;;;;;0.30;0.30;;;11.30;99.90;;;;;;4395833;32;20201;-74
2023/10/09 08:58:46;;;;;;;0.30;0.30;;;11.30;99.90;;;;;;4391099;32;20133;-75
2023/10/09 09:01:00;;;;;;;1.30;0.40;;;11.30;99.90;;;;;;4382519;32;20093;-79
2023/10/09 09:03:26;;;;;;;0.20;0.20;;;11.30;99.90;;;;;;4394618;32;20376;-76
2023/10/09 09:06:01;;;;;;;1.10;0.68;;;11.30;99.90;;;;;;4388165;32;20097;-77
2023/10/09 09:08:29;;;;;;;0.45;0.35;;;11.30;99.90;;;;;;4381678;32;20153;-77
2023/10/09 09:11:12;;;;;;;0.30;0.30;;;11.40;99.90;;;;;;4397156;32;20118;-74
2023/10/09 09:13:48;;;;;;;0.40;0.35;;;11.40;99.90;;;;;;4369826;32;20105;-76
2023/10/09 09:16:22;;;;;;;0.50;0.50;;;11.50;99.90;;;;;;4382418;32;20242;-76
2023/10/09 09:21:40;;;;;;;0.40;0.40;;;11.50;99.90;;;;;;4376541;32;20781;-77
2023/10/09 09:24:26;;;;;;;0.30;0.30;;;11.40;99.90;;;;;;4377935;32;20117;-74
2023/10/09 09:26:59;;;;;;;0.40;0.40;;;11.50;99.90;;;;;;4389720;32;20585;-75
2023/10/09 09:29:39;;;;;;;0.40;0.40;;;11.50;99.90;;;;;;4386852;32;20186;-76
2023/10/09 09:32:16;;;;;;;0.47;0.47;;;11.50;99.90;;;;;;4389117;32;20186;-74
2023/10/09 09:34:48;;;;;;;0.30;0.30;;;11.50;99.90;;;;;;4373948;32;20147;-75
2023/10/09 09:37:20;;;;;;;0.57;0.57;;;11.50;99.90;;;;;;4367979;32;20090;-76
2023/10/09 09:39:53;;;;;;;0.40;0.40;;;11.40;99.90;;;;;;4383984;32;20069;-75
2023/10/09 09:42:25;;;;;;;0.35;0.35;;;11.40;99.90;;;;;;4373420;32;20162;-75
2023/10/09 09:44:52;;;;;;;0.30;0.30;;;11.50;99.90;;;;;;4384894;32;20105;-76
2023/10/09 09:47:35;;;;;;;0.50;0.50;;;11.40;99.90;;;;;;4384244;32;20089;-75
2023/10/09 09:50:11;;;;;;;0.50;0.50;;;11.40;99.90;;;;;;4385527;32;20086;-75
2023/10/09 09:52:38;;;;;;;0.40;0.40;;;11.50;99.90;;;;;;4372979;32;20129;-75
2023/10/09 09:55:07;;;;;;;0.43;0.43;;;11.50;99.90;;;;;;4388337;32;20198;-76
2023/10/09 09:57:39;;;;;;;0.55;0.55;;;11.50;99.90;;;;;;4381939;32;20113;-76
2023/10/09 10:02:38;;;;;;;0.57;0.57;;;11.60;99.90;;;;;;4381172;32;20131;-74
2023/10/09 10:05:11;;;;;;;0.30;0.30;;;11.60;99.90;;;;;;4383357;32;20093;-76
2023/10/09 10:07:43;;;;;;;0.52;0.52;;;11.70;99.90;;;;;;4387041;32;20114;-77
2023/10/09 10:10:37;;;;;;;0.50;0.50;;;11.70;99.90;;;;;;4384927;32;20113;-76
2023/10/09 10:13:03;;;;;;;0.40;0.40;;;11.60;99.90;;;;;;4366817;32;20269;-75
2023/10/09 10:15:57;;;;;;;0.40;0.40;;;11.60;99.90;;;;;;4379194;32;20106;-76
2023/10/09 10:18:24;;;;;;;0.32;0.32;;;11.60;99.90;;;;;;4358388;32;20522;-76
2023/10/09 10:21:15;;;;;;;0.40;0.40;;;11.60;99.90;;;;;;4379313;32;20110;-76
2023/10/09 10:23:42;;;;;;;0.70;0.70;;;11.70;99.90;;;;;;4377195;32;20421;-78
2023/10/09 10:26:26;;;;;;;1.00;0.80;;;11.70;99.90;;;;;;4388649;32;20663;-77
2023/10/09 10:29:22;;;;;;;0.32;0.32;;;11.70;99.90;;;;;;4370194;32;20171;-75
2023/10/09 10:32:00;;;;;;;2.33;0.55;;;11.70;99.90;;;;;;4374232;32;21726;-75
2023/10/09 10:34:26;;;;;;;0.40;0.40;;;11.70;99.90;;;;;;4390472;32;20109;-77
2023/10/09 10:36:58;;;;;;;0.60;0.60;;;11.80;99.90;;;;;;4390988;32;20161;-75
2023/10/09 10:39:42;;;;;;;0.40;0.40;;;11.80;99.90;;;;;;4385217;32;20077;-75
2023/10/09 10:42:09;;;;;;;0.45;0.45;;;11.80;99.90;;;;;;4388942;32;20212;-75
2023/10/09 10:44:37;;;;;;;0.62;0.43;;;11.80;99.90;;;;;;4394202;32;20089;-76
2023/10/09 10:47:05;;;;;;;0.62;0.45;;;11.80;99.90;;;;;;4401375;32;20164;-76
2023/10/09 10:49:40;;;;;;;1.23;1.15;;;11.80;99.90;;;;;;4399348;32;20699;-76
2023/10/09 10:52:22;;;;;;;0.30;0.30;;;11.80;99.90;;;;;;4396768;32;20136;-76
2023/10/09 10:55:05;;;;;;;6.12;1.35;;;11.70;99.90;;;;;;4379518;32;20224;-77
2023/10/09 10:57:53;;;;;;;0.60;0.60;;;11.70;99.90;;;;;;4374146;32;20101;-77
2023/10/09 11:01:18;;;;;;;0.68;0.68;;;11.70;99.90;;;;;;4397219;32;20081;-76
2023/10/09 11:03:23;;;;;;;0.40;0.40;;;11.70;99.90;;;;;;4383302;32;20672;-77
2023/10/09 11:05:50;;;;;;;0.50;0.50;;;11.70;99.90;;;;;;4394666;32;20614;-76
2023/10/09 11:08:22;;;;;;;0.65;0.55;;;11.80;99.90;;;;;;4395194;32;20493;-76
2023/10/09 11:10:53;;;;;;;0.43;0.43;;;11.80;99.90;;;;;;4394957;32;20596;-76
2023/10/09 11:13:35;;;;;;;0.50;0.50;;;11.80;99.90;;;;;;4381473;32;20536;-76
2023/10/09 11:16:23;;;;;;;0.40;0.40;;;11.90;99.90;;;;;;4386734;32;20479;-75
2023/10/09 11:18:46;;;;;;;0.62;0.62;;;11.90;99.90;;;;;;4379349;32;20084;-75
2023/10/09 11:23:58;;;;;;;0.50;0.50;;;11.90;99.90;;;;;;4393357;32;20678;-76
2023/10/09 11:26:28;;;;;;;0.45;0.40;;;11.90;99.90;;;;;;4371377;32;20297;-76
2023/10/09 11:32:05;;;;;;;1.58;1.00;;;11.90;99.90;;;;;;4383646;32;20389;-75
2023/10/09 11:34:32;;;;;;;1.17;0.65;;;12.00;99.90;;;;;;4388174;32;20101;-76
2023/10/09 11:37:00;;;;;;;0.43;0.43;;;12.00;99.90;;;;;;4397907;32;20085;-76
2023/10/09 11:39:34;;;;;;;0.40;0.40;;;12.10;99.90;;;;;;4387286;32;20698;-77
2023/10/09 11:42:04;;;;;;;0.60;0.60;;;12.30;99.90;;;;;;4390875;32;20089;-76
2023/10/09 11:44:45;;;;;;;0.43;0.43;;;12.50;99.90;;;;;;4385473;32;20353;-77
2023/10/09 11:47:22;;;;;;;0.57;0.52;;;12.50;99.90;;;;;;4355082;32;21168;-77
2023/10/09 11:50:30;;;;;;;1.05;0.70;;;12.50;99.90;;;;;;4379153;32;103216;-77
2023/10/09 11:53:08;;;;;;;4.45;0.68;;;12.40;99.90;;;;;;4371353;32;20222;-76
2023/10/09 11:55:34;;;;;;;0.40;0.40;;;12.40;99.90;;;;;;4387542;32;20089;-77
2023/10/09 11:58:02;;;;;;;3.62;1.52;;;12.40;99.90;;;;;;4376294;32;20560;-77
2023/10/09 12:00:29;;;;;;;0.60;0.60;;;12.50;99.90;;;;;;4383597;32;20122;-77
2023/10/09 12:02:55;;;;;;;0.50;0.50;;;12.50;99.90;;;;;;4394545;32;20088;-77
2023/10/09 12:05:23;;;;;;;0.40;0.40;;;12.40;99.90;;;;;;4397348;32;21066;-77
2023/10/09 12:07:57;;;;;;;0.60;0.60;;;12.40;99.90;;;;;;4392347;32;20094;-77
2023/10/09 12:10:26;;;;;;;1.20;1.10;;;12.40;99.90;;;;;;4386084;32;20189;-77
2023/10/09 12:12:52;;;;;;;0.30;0.30;;;12.40;99.90;;;;;;4400269;32;20196;-76
2023/10/09 12:15:19;;;;;;;7.35;0.70;;;12.40;99.90;;;;;;4397338;32;20496;-77
2023/10/09 12:17:46;;;;;;;0.22;0.22;;;12.40;99.90;;;;;;4399750;32;20122;-77
2023/10/09 12:20:29;;;;;;;2.15;1.02;;;12.40;99.90;;;;;;4401560;32;20089;-77
2023/10/09 12:23:06;;;;;;;0.65;0.65;;;12.40;99.90;;;;;;4406618;32;20113;-77
2023/10/09 12:25:33;;;;;;;0.50;0.50;;;12.30;99.90;;;;;;4399373;32;21571;-77
2023/10/09 12:28:01;;;;;;;0.70;0.70;;;12.30;99.90;;;;;;4394055;32;20085;-77
2023/10/09 12:30:28;;;;;;;2.10;0.50;;;12.20;99.90;;;;;;4400843;32;20105;-77
2023/10/09 12:32:57;;;;;;;0.40;0.40;;;12.20;99.90;;;;;;4400202;32;20089;-77
2023/10/09 12:35:25;;;;;;;0.62;0.62;;;12.30;99.90;;;;;;4397075;32;20117;-77
2023/10/09 12:37:54;;;;;;;1.08;0.90;;;12.20;99.90;;;;;;4401621;32;20120;-76
2023/10/09 12:40:24;;;;;;;0.70;0.70;;;12.20;99.90;;;;;;4410501;32;20115;-76
2023/10/09 12:42:52;;;;;;;0.73;0.73;;;12.30;99.90;;;;;;4410420;32;20254;-76
2023/10/09 12:45:25;;;;;;;0.43;0.43;;;12.20;99.90;;;;;;4409143;32;21000;-75
2023/10/09 12:47:51;;;;;;;0.32;0.32;;;12.20;99.90;;;;;;4411373;32;20180;-75
2023/10/09 12:50:27;;;;;;;0.40;0.40;;;12.20;99.90;;;;;;4408949;32;20956;-76
2023/10/09 12:52:53;;;;;;;0.50;0.50;;;12.30;99.90;;;;;;4417795;32;20244;-76
2023/10/09 12:55:20;;;;;;;0.85;0.62;;;12.30;99.90;;;;;;4416115;32;20089;-77
2023/10/09 12:57:48;;;;;;;1.23;0.55;;;12.30;99.90;;;;;;4413869;32;20077;-75
2023/10/09 13:00:25;;;;;;;2.03;1.08;;;12.20;99.90;;;;;;4419064;32;20094;-75
2023/10/09 13:02:51;;;;;;;0.50;0.50;;;12.20;99.90;;;;;;4422179;32;20084;-75
2023/10/09 13:05:26;;;;;;;0.32;0.32;;;12.20;99.90;;;;;;4422938;32;20117;-77
2023/10/09 13:07:52;;;;;;;0.80;0.60;;;12.20;99.90;;;;;;4416411;32;20078;-80
2023/10/09 13:10:19;;;;;;;0.90;0.62;;;12.10;99.90;;;;;;4415403;32;20075;-77
2023/10/09 13:12:44;;;;;;;0.77;0.60;;;12.10;99.90;;;;;;4414186;32;20058;-75
2023/10/09 13:15:11;;;;;;;0.50;0.50;;;12.00;99.90;;;;;;4412795;32;20082;-76
2023/10/09 13:17:37;;;;;;;0.90;0.90;;;12.00;99.90;;;;;;4396972;32;20089;-77
2023/10/09 13:20:12;;;;;;;1.40;0.88;;;12.00;99.90;;;;;;4402541;32;21202;-75
2023/10/09 13:22:40;;;;;;;0.55;0.55;;;12.00;99.90;;;;;;4396886;32;20141;-75
2023/10/09 13:25:07;;;;;;;0.85;0.68;;;12.00;99.90;;;;;;4404353;32;20505;-75
2023/10/09 13:27:34;;;;;;;0.77;0.77;;;12.00;99.90;;;;;;4401742;32;20077;-76
2023/10/09 13:30:07;;;;;;;0.35;0.35;;;12.10;99.90;;;;;;4406630;32;20078;-77
2023/10/09 13:32:35;;;;;;;0.60;0.60;;;12.10;99.90;;;;;;4394046;32;20117;-76
2023/10/09 13:35:03;;;;;;;0.47;0.47;;;12.10;99.90;;;;;;4408595;32;20089;-77
2023/10/09 13:37:30;;;;;;;4.57;0.65;;;12.10;99.90;;;;;;4407097;32;20101;-77
2023/10/09 13:39:57;;;;;;;0.45;0.45;;;12.10;99.90;;;;;;4412587;32;20136;-76
2023/10/09 13:42:25;;;;;;;0.30;0.30;;;12.10;99.90;;;;;;4411951;32;20141;-75
2023/10/09 13:44:53;;;;;;;0.77;0.62;;;12.10;99.90;;;;;;4413412;32;20464;-75
2023/10/09 13:47:20;;;;;;;1.37;0.80;;;12.20;99.90;;;;;;4411110;32;20069;-75
2023/10/09 13:49:53;;;;;;;1.10;0.73;;;12.20;99.90;;;;;;4408769;32;20073;-75
2023/10/09 13:52:18;;;;;;;0.30;0.30;;;12.20;99.90;;;;;;4407377;32;20065;-75
2023/10/09 13:54:48;;;;;;;0.40;0.40;;;12.20;99.90;;;;;;4410291;32;20079;-75
2023/10/09 13:57:15;;;;;;;6.90;1.90;;;12.20;99.90;;;;;;4408460;32;20074;-76
2023/10/09 13:59:48;;;;;;;0.68;0.68;;;12.20;99.90;;;;;;4406243;32;20818;-77
2023/10/09 14:02:17;;;;;;;0.77;0.68;;;12.10;99.90;;;;;;4415541;32;20579;-77
2023/10/09 14:04:43;;;;;;;2.78;1.15;;;12.10;99.90;;;;;;4413368;32;20082;-75